SJO weather

Juan Santamaria International Airport
San Jose, Alajuela, Costa Rica

Public forecast

Using degrees Celsius for public forecast. Weather courtesy of forecast.io.

Current aviation weather report (METAR) for Juan Santamaria International Airport

Retrieved 2019/10/15 10:00 UTC (7 minutes ago):

MROC 151000Z 06003KT 020V080 9999 -RA FEW003 SCT008 OVC120 19/19 A3005 NOSIG

Aviation forecast (TAF) for Juan Santamaria International Airport

Retrieved 2019/10/15 06:21 UTC (4 hours ago):

TAF MROC 150500Z 1506/1606 08005KT 9999 FEW030 BKN100 TX26/1518Z TN19/1511Z TEMPO 1506/1512 RA BECMG 1515/1517 25005KT TEMPO 1520/1524 5000 RA BR BKN010 BECMG 1601/1603 10005KT